createdAt,value
2022-10-13T00:02:07.250Z,9.30
2022-10-13T00:07:13.020Z,9.05
2022-10-13T00:12:16.962Z,8.88
2022-10-13T00:17:21.510Z,8.74
2022-10-13T00:22:24.802Z,8.62
2022-10-13T00:27:28.980Z,9.76
2022-10-13T00:32:32.539Z,13.07
2022-10-13T00:37:36.757Z,13.49
2022-10-13T00:42:42.324Z,12.00
2022-10-13T00:47:48.709Z,11.13
2022-10-13T00:52:55.503Z,10.52
2022-10-13T00:58:05.409Z,10.02
2022-10-13T01:03:11.821Z,9.61
2022-10-13T01:08:18.551Z,9.27
2022-10-13T01:13:28.413Z,8.98
2022-10-13T01:19:07.452Z,8.74
2022-10-13T01:24:52.157Z,8.53
2022-10-13T01:30:03.644Z,8.37
2022-10-13T01:35:21.455Z,9.55
2022-10-13T01:40:32.718Z,12.88
2022-10-13T01:45:42.605Z,12.76
2022-10-13T01:50:52.254Z,11.24
2022-10-13T01:55:59.232Z,10.40
2022-10-13T02:01:41.670Z,9.77
2022-10-13T02:07:08.517Z,9.19
2022-10-13T02:12:21.377Z,8.74
2022-10-13T02:17:29.461Z,8.45
2022-10-13T02:22:41.370Z,8.23
2022-10-13T02:27:45.910Z,8.02
2022-10-13T02:32:49.076Z,7.88
2022-10-13T02:37:54.879Z,8.98
2022-10-13T02:42:59.321Z,12.28
2022-10-13T02:48:04.199Z,12.85
2022-10-13T02:53:08.182Z,11.28
2022-10-13T02:58:11.238Z,10.34
2022-10-13T03:03:15.519Z,9.71
2022-10-13T03:08:20.781Z,9.21
2022-10-13T03:13:24.703Z,8.82
2022-10-13T03:18:28.622Z,8.41
2022-10-13T03:23:33.656Z,8.10
2022-10-13T03:28:37.977Z,7.87
2022-10-13T03:33:41.695Z,7.69
2022-10-13T03:38:45.695Z,7.51
2022-10-13T03:43:50.741Z,7.34
2022-10-13T03:48:57.720Z,8.47
2022-10-13T03:54:00.831Z,11.90
2022-10-13T03:59:05.422Z,12.55
2022-10-13T04:04:12.366Z,10.99
2022-10-13T04:09:18.396Z,10.06
2022-10-13T04:14:23.146Z,9.46
2022-10-13T04:19:27.718Z,8.95
2022-10-13T04:24:31.791Z,8.52
2022-10-13T04:29:36.083Z,8.17
2022-10-13T04:34:39.654Z,7.88
2022-10-13T04:39:42.998Z,7.66
2022-10-13T04:44:47.037Z,7.48
2022-10-13T04:49:51.885Z,8.57
2022-10-13T04:54:55.078Z,11.94
2022-10-13T04:59:58.595Z,12.73
2022-10-13T05:05:03.350Z,11.08
2022-10-13T05:10:08.309Z,10.04
2022-10-13T05:15:12.828Z,9.37
2022-10-13T05:20:18.387Z,8.84
2022-10-13T05:25:22.127Z,8.37
2022-10-13T05:30:25.648Z,8.00
2022-10-13T05:35:29.362Z,7.72
2022-10-13T05:40:33.972Z,7.49
2022-10-13T05:45:39.252Z,7.33
2022-10-13T05:50:43.992Z,8.38
2022-10-13T05:55:49.359Z,11.73
2022-10-13T06:00:55.523Z,12.56
2022-10-13T06:05:58.684Z,10.99
2022-10-13T06:11:03.415Z,10.11
2022-10-13T06:16:08.065Z,9.55
2022-10-13T06:21:11.925Z,9.13
2022-10-13T06:26:15.196Z,8.82
2022-10-13T06:31:18.932Z,8.61
2022-10-13T06:36:23.630Z,8.44
2022-10-13T06:41:30.610Z,8.32
2022-10-13T06:46:34.876Z,9.50
2022-10-13T06:51:40.516Z,12.92
2022-10-13T06:56:44.507Z,13.82
2022-10-13T07:01:50.683Z,12.33
2022-10-13T07:06:56.634Z,11.46
2022-10-13T07:11:59.667Z,10.93
2022-10-13T07:17:04.582Z,10.56
2022-10-13T07:22:07.633Z,10.28
2022-10-13T07:27:11.753Z,10.10
2022-10-13T07:32:17.927Z,9.97
2022-10-13T07:37:22.565Z,9.86
2022-10-13T07:42:28.605Z,11.07
2022-10-13T07:47:32.354Z,14.35
2022-10-13T07:52:37.474Z,14.84
2022-10-13T07:57:40.318Z,13.45
2022-10-13T08:02:45.102Z,12.73
2022-10-13T08:07:49.249Z,12.29
2022-10-13T08:12:52.618Z,11.97
2022-10-13T08:17:56.489Z,11.74
2022-10-13T08:23:02.843Z,11.55
2022-10-13T08:28:08.065Z,11.43
2022-10-13T08:33:15.623Z,11.37
2022-10-13T08:38:19.235Z,11.35
2022-10-13T08:43:24.924Z,11.37
2022-10-13T08:48:32.902Z,11.40
2022-10-13T08:53:43.791Z,11.48
2022-10-13T08:58:49.347Z,11.53
2022-10-13T09:03:52.715Z,12.80
2022-10-13T09:09:02.620Z,16.00
2022-10-13T09:14:31.697Z,15.92
2022-10-13T09:19:37.004Z,14.87
2022-10-13T09:24:42.823Z,14.42
2022-10-13T09:29:47.184Z,14.13
2022-10-13T09:34:54.326Z,13.92
2022-10-13T09:40:21.214Z,13.75
2022-10-13T09:45:27.831Z,13.58
2022-10-13T09:50:34.878Z,13.49
2022-10-13T09:55:39.229Z,13.48
2022-10-13T10:00:42.746Z,13.47
2022-10-13T10:05:50.062Z,13.52
2022-10-13T10:10:56.607Z,13.60
2022-10-13T10:16:21.078Z,13.68
2022-10-13T10:21:50.751Z,13.86
2022-10-13T10:26:54.425Z,14.05
2022-10-13T10:32:14.193Z,14.19
2022-10-13T10:37:36.709Z,14.33
2022-10-13T10:42:53.335Z,14.44
2022-10-13T10:48:22.706Z,14.54
2022-10-13T10:54:12.082Z,14.64
2022-10-13T10:59:17.046Z,14.75
2022-10-13T11:04:23.513Z,14.84
2022-10-13T11:09:47.639Z,14.93
2022-10-13T11:15:31.524Z,15.03
2022-10-13T11:20:35.492Z,15.12
2022-10-13T11:25:49.575Z,15.16
2022-10-13T11:30:55.979Z,15.23
2022-10-13T11:36:37.512Z,15.33
2022-10-13T11:42:14.629Z,15.47
2022-10-13T11:48:13.864Z,15.59
2022-10-13T11:53:25.334Z,15.75
2022-10-13T11:58:31.195Z,15.85
2022-10-13T12:03:38.772Z,15.94
2022-10-13T12:08:52.136Z,15.99
2022-10-13T12:13:57.239Z,16.04
2022-10-13T12:19:22.643Z,16.08
2022-10-13T12:24:29.371Z,16.11
2022-10-13T12:29:37.170Z,16.14
2022-10-13T12:34:41.643Z,16.16
2022-10-13T12:39:46.573Z,16.20
2022-10-13T12:44:50.067Z,16.24
2022-10-13T12:50:29.863Z,16.47
2022-10-13T12:55:34.546Z,16.99
2022-10-13T13:00:37.764Z,17.48
2022-10-13T13:05:50.794Z,17.92
2022-10-13T13:11:02.194Z,18.28
2022-10-13T13:16:21.134Z,18.53
2022-10-13T13:21:25.516Z,18.69
2022-10-13T13:26:34.721Z,18.75
2022-10-13T13:31:38.130Z,18.77
2022-10-13T13:36:44.677Z,18.79
2022-10-13T13:41:48.474Z,18.79
2022-10-13T13:46:51.645Z,18.79
2022-10-13T13:51:55.844Z,18.80
2022-10-13T13:57:00.654Z,18.80
2022-10-13T14:02:07.066Z,18.79
2022-10-13T14:07:12.135Z,18.75
2022-10-13T14:12:16.589Z,18.74
2022-10-13T14:17:20.865Z,18.73
2022-10-13T14:22:24.978Z,18.76
2022-10-13T14:27:28.485Z,18.79
2022-10-13T14:32:36.255Z,18.77
2022-10-13T14:37:40.214Z,18.75
2022-10-13T14:42:45.111Z,18.73
2022-10-13T14:47:54.193Z,18.69
2022-10-13T14:52:57.572Z,18.55
2022-10-13T14:58:03.718Z,18.31
2022-10-13T15:03:07.426Z,18.07
2022-10-13T15:08:11.170Z,17.87
2022-10-13T15:13:14.831Z,17.76
2022-10-13T15:18:19.944Z,17.55
2022-10-13T15:23:24.109Z,17.32
2022-10-13T15:28:38.938Z,17.08
2022-10-13T15:33:49.633Z,16.85
2022-10-13T15:38:53.150Z,16.65
2022-10-13T15:43:59.734Z,16.46
2022-10-13T15:49:03.213Z,16.27
2022-10-13T15:54:06.587Z,16.10
2022-10-13T15:59:11.255Z,15.93
2022-10-13T16:04:14.409Z,15.79
2022-10-13T16:09:18.871Z,15.63
2022-10-13T16:14:22.215Z,15.50
2022-10-13T16:19:26.398Z,15.37
2022-10-13T16:24:32.461Z,15.27
2022-10-13T16:29:36.042Z,15.19
2022-10-13T16:34:40.045Z,15.12
2022-10-13T16:39:46.581Z,15.03
2022-10-13T16:44:55.372Z,14.94
2022-10-13T16:50:10.351Z,14.85
2022-10-13T16:55:15.984Z,14.76
2022-10-13T17:00:19.376Z,14.67
2022-10-13T17:05:23.593Z,14.60
2022-10-13T17:10:28.918Z,14.50
2022-10-13T17:15:37.559Z,14.39
2022-10-13T17:20:42.116Z,14.30
2022-10-13T17:25:46.299Z,14.21
2022-10-13T17:31:04.904Z,14.14
2022-10-13T17:36:38.725Z,14.07
2022-10-13T17:41:46.104Z,13.98
2022-10-13T17:46:51.091Z,13.90
2022-10-13T17:51:56.244Z,13.82
2022-10-13T17:57:00.645Z,13.76
2022-10-13T18:02:05.279Z,13.71
2022-10-13T18:07:08.744Z,13.65
2022-10-13T18:12:13.324Z,13.62
2022-10-13T18:17:17.673Z,13.61
2022-10-13T18:22:22.435Z,14.67
2022-10-13T18:27:27.870Z,17.78
2022-10-13T18:32:31.424Z,18.11
2022-10-13T18:37:35.887Z,16.85
2022-10-13T18:42:42.294Z,16.17
2022-10-13T18:47:53.473Z,15.68
2022-10-13T18:52:57.519Z,15.27
2022-10-13T18:58:01.390Z,14.89
2022-10-13T19:03:04.520Z,14.57
2022-10-13T19:08:10.069Z,14.29
2022-10-13T19:13:14.252Z,14.04
2022-10-13T19:18:18.308Z,13.84
2022-10-13T19:23:23.089Z,13.66
2022-10-13T19:28:27.866Z,13.52
2022-10-13T19:33:32.084Z,13.40
2022-10-13T19:38:36.309Z,13.30
2022-10-13T19:43:40.940Z,13.18
2022-10-13T19:48:45.760Z,13.07
2022-10-13T19:53:49.703Z,14.05
2022-10-13T19:58:55.843Z,17.09
2022-10-13T20:03:59.767Z,17.40
2022-10-13T20:09:04.299Z,16.00
2022-10-13T20:14:08.163Z,15.19
2022-10-13T20:19:14.235Z,14.62
2022-10-13T20:24:22.260Z,14.15
2022-10-13T20:29:26.230Z,13.76
2022-10-13T20:34:29.132Z,13.41
2022-10-13T20:39:32.972Z,13.13
2022-10-13T20:44:36.718Z,12.89
2022-10-13T20:49:39.728Z,12.68
2022-10-13T20:54:45.578Z,12.48
2022-10-13T20:59:50.180Z,13.42
2022-10-13T21:04:54.538Z,16.46
2022-10-13T21:09:58.517Z,16.46
2022-10-13T21:15:05.022Z,15.04
2022-10-13T21:20:10.961Z,14.20
2022-10-13T21:25:16.148Z,13.60
2022-10-13T21:30:21.647Z,13.14
2022-10-13T21:35:26.280Z,12.75
2022-10-13T21:40:30.571Z,12.44
2022-10-13T21:45:35.297Z,12.17
2022-10-13T21:50:40.032Z,11.93
2022-10-13T21:55:43.960Z,11.73
2022-10-13T22:00:48.964Z,12.61
2022-10-13T22:05:53.553Z,15.76
2022-10-13T22:10:57.965Z,16.28
2022-10-13T22:16:10.370Z,14.72
2022-10-13T22:21:20.414Z,13.78
2022-10-13T22:26:25.540Z,13.15
2022-10-13T22:31:33.424Z,12.64
2022-10-13T22:36:45.201Z,12.22
2022-10-13T22:41:49.675Z,11.88
2022-10-13T22:46:54.525Z,11.61
2022-10-13T22:51:57.579Z,11.42
2022-10-13T22:57:00.961Z,12.42
2022-10-13T23:02:05.703Z,15.59
2022-10-13T23:07:13.220Z,16.12
2022-10-13T23:12:17.057Z,14.64
2022-10-13T23:17:23.984Z,13.77
2022-10-13T23:22:30.219Z,13.20
2022-10-13T23:27:35.377Z,12.74
2022-10-13T23:32:39.166Z,12.35
2022-10-13T23:37:43.897Z,12.00
2022-10-13T23:42:48.390Z,11.72
2022-10-13T23:47:51.710Z,11.48
2022-10-13T23:52:57.020Z,11.26
2022-10-13T23:58:00.486Z,12.34
